Time,TemperatureF,DewpointF,PressureIn,WindDirection,WindDirectionDegrees,WindSpeedMPH,WindSpeedGustMPH,Humidity,HourlyPrecipIn,Conditions,Clouds,dailyrainin,SoftwareType,DateUTC
2013-09-22 00:21:00,80.0,51.0,29.60,West,263,4.0,10.0,37,0.00,,,0.00,,2013-09-22 07:21:00,
2013-09-22 00:52:00,79.0,52.0,29.60,West,265,2.0,7.0,39,0.00,,,0.00,,2013-09-22 07:52:00,
2013-09-22 01:22:00,78.0,52.0,29.60,West,269,2.0,9.0,41,0.00,,,0.00,,2013-09-22 08:22:00,
2013-09-22 01:52:00,78.0,52.0,29.60,WSW,244,1.0,5.0,40,0.00,,,0.00,,2013-09-22 08:52:00,
2013-09-22 02:21:00,77.0,51.0,29.60,West,275,3.0,9.0,40,0.00,,,0.00,,2013-09-22 09:21:00,
2013-09-22 02:53:00,76.0,51.0,29.59,West,265,3.0,10.0,42,0.00,,,0.00,,2013-09-22 09:53:00,
2013-09-22 03:23:00,75.0,51.0,29.59,West,275,3.0,7.0,43,0.00,,,0.00,,2013-09-22 10:23:00,
2013-09-22 03:53:00,74.0,51.0,29.59,West,269,0.0,2.0,45,0.00,,,0.00,,2013-09-22 10:53:00,
2013-09-22 04:22:00,73.0,52.0,29.59,West,270,0.0,3.0,48,0.00,,,0.00,,2013-09-22 11:22:00,
2013-09-22 04:52:00,72.0,51.0,29.60,West,259,0.0,0.0,48,0.00,,,0.00,,2013-09-22 11:52:00,
2013-09-22 05:21:00,71.0,49.0,29.62,WNW,287,2.0,6.0,46,0.00,,,0.00,,2013-09-22 12:21:00,
2013-09-22 05:52:00,70.0,49.0,29.63,WNW,289,0.0,0.0,47,0.00,,,0.00,,2013-09-22 12:52:00,
2013-09-22 06:21:00,70.0,48.0,29.64,WNW,288,0.0,1.0,46,0.00,,,0.00,,2013-09-22 13:21:00,
2013-09-22 06:52:00,69.0,47.0,29.65,West,267,0.0,0.0,46,0.00,,,0.00,,2013-09-22 13:52:00,
2013-09-22 07:22:00,69.0,48.0,29.66,WNW,297,0.0,0.0,47,0.00,,,0.00,,2013-09-22 14:22:00,
2013-09-22 07:52:00,70.0,49.0,29.67,WNW,296,0.0,0.0,47,0.00,,,0.00,,2013-09-22 14:52:00,
2013-09-22 08:23:00,72.0,49.0,29.67,West,266,2.0,5.0,44,0.00,,,0.00,,2013-09-22 15:23:00,
2013-09-22 08:55:00,75.0,51.0,29.68,WNW,299,2.0,6.0,43,0.00,,,0.00,,2013-09-22 15:55:00,
2013-09-22 09:23:00,76.0,50.0,29.69,West,259,3.0,12.0,40,0.00,,,0.00,,2013-09-22 16:23:00,
2013-09-22 09:54:00,78.0,52.0,29.69,WNW,303,2.0,12.0,40,0.00,,,0.00,,2013-09-22 16:54:00,
2013-09-22 10:22:00,80.0,52.0,29.69,NW,322,1.0,10.0,38,0.00,,,0.00,,2013-09-22 17:22:00,
2013-09-22 10:53:00,82.0,52.0,29.69,WNW,286,2.0,14.0,36,0.00,,,0.00,,2013-09-22 17:53:00,
2013-09-22 11:22:00,83.0,52.0,29.68,West,267,2.0,7.0,34,0.00,,,0.00,,2013-09-22 18:22:00,
2013-09-22 11:52:00,84.0,52.0,29.68,NW,322,1.0,5.0,33,0.00,,,0.00,,2013-09-22 18:52:00,
2013-09-22 12:02:00,84.0,52.0,29.68,NW,322,1.0,5.0,33,0.00,,,0.00,,2013-09-22 19:02:00,
2013-09-22 12:22:00,84.0,51.0,29.67,NW,306,3.0,5.0,32,0.00,,,0.00,,2013-09-22 19:22:00,
2013-09-22 12:32:00,84.0,51.0,29.67,NW,306,3.0,5.0,32,0.00,,,0.00,,2013-09-22 19:32:00,
2013-09-22 12:52:00,87.0,48.0,29.66,WNW,296,4.0,10.0,26,0.00,,,0.00,,2013-09-22 19:52:00,
2013-09-22 13:22:00,88.0,44.0,29.65,WNW,290,2.0,12.0,22,0.00,,,0.00,,2013-09-22 20:22:00,
2013-09-22 13:52:00,90.0,39.0,29.64,West,268,1.0,7.0,17,0.00,,,0.00,,2013-09-22 20:52:00,
2013-09-22 14:22:00,90.0,38.0,29.62,NNW,329,3.0,12.0,16,0.00,,,0.00,,2013-09-22 21:22:00,
2013-09-22 17:22:00,91.0,39.0,29.60,NW,314,0.0,3.0,16,0.00,,,0.00,,2013-09-23 00:22:00,
2013-09-22 18:52:00,87.0,38.0,29.62,NNW,327,0.0,5.0,18,0.00,,,0.00,,2013-09-23 01:52:00,
2013-09-22 19:22:00,84.0,39.0,29.63,North,0,0.0,1.0,20,0.00,,,0.00,,2013-09-23 02:22:00,
2013-09-22 19:52:00,83.0,39.0,29.64,North,351,0.0,2.0,21,0.00,,,0.00,,2013-09-23 02:52:00,
2013-09-22 20:54:00,81.0,40.0,29.66,NNW,347,0.0,2.0,23,0.00,,,0.00,,2013-09-23 03:54:00,
2013-09-22 21:14:00,81.0,40.0,29.67,NNW,347,0.0,0.0,23,0.00,,,0.00,,2013-09-23 04:14:00,
2013-09-22 21:24:00,80.0,39.0,29.67,NNW,345,0.0,2.0,23,0.00,,,0.00,,2013-09-23 04:24:00,
2013-09-22 21:54:00,80.0,38.0,29.68,NNE,21,0.0,0.0,22,0.00,,,0.00,,2013-09-23 04:54:00,
2013-09-22 22:22:00,80.0,39.0,29.68,NNE,21,0.0,0.0,23,0.00,,,0.00,,2013-09-23 05:22:00,
2013-09-22 22:53:00,78.0,38.0,29.68,West,280,0.0,2.0,24,0.00,,,0.00,,2013-09-23 05:53:00,
2013-09-22 23:22:00,78.0,38.0,29.69,North,0,0.0,0.0,24,0.00,,,0.00,,2013-09-23 06:22:00,
2013-09-22 23:52:00,77.0,38.0,29.69,NW,315,0.0,1.0,25,0.00,,,0.00,,2013-09-23 06:52:00,